sensor_id;sensor_type;location;lat;lon;timestamp;P1;durP1;ratioP1;P2;durP2;ratioP2
9972;SDS011;5027;53.560;10.062;2023-11-21T00:02:18;10.53;;;9.53;;
9972;SDS011;5027;53.560;10.062;2023-11-21T00:04:45;9.90;;;8.90;;
9972;SDS011;5027;53.560;10.062;2023-11-21T00:07:12;9.50;;;8.53;;
9972;SDS011;5027;53.560;10.062;2023-11-21T00:09:38;8.43;;;7.63;;
9972;SDS011;5027;53.560;10.062;2023-11-21T00:12:05;8.57;;;7.77;;
9972;SDS011;5027;53.560;10.062;2023-11-21T00:14:36;8.17;;;7.37;;
9972;SDS011;5027;53.560;10.062;2023-11-21T00:17:04;6.97;;;6.27;;
9972;SDS011;5027;53.560;10.062;2023-11-21T00:19:32;7.10;;;6.40;;
9972;SDS011;5027;53.560;10.062;2023-11-21T00:21:59;7.23;;;6.63;;
9972;SDS011;5027;53.560;10.062;2023-11-21T00:24:26;6.67;;;6.07;;
9972;SDS011;5027;53.560;10.062;2023-11-21T00:26:53;6.17;;;5.57;;
9972;SDS011;5027;53.560;10.062;2023-11-21T00:29:20;6.53;;;5.93;;
9972;SDS011;5027;53.560;10.062;2023-11-21T00:31:46;6.90;;;6.30;;
9972;SDS011;5027;53.560;10.062;2023-11-21T00:34:13;7.37;;;6.70;;
9972;SDS011;5027;53.560;10.062;2023-11-21T00:36:40;7.20;;;6.50;;
9972;SDS011;5027;53.560;10.062;2023-11-21T00:39:07;7.17;;;6.07;;
9972;SDS011;5027;53.560;10.062;2023-11-21T00:41:34;6.77;;;6.17;;
9972;SDS011;5027;53.560;10.062;2023-11-21T00:44:02;7.53;;;6.27;;
9972;SDS011;5027;53.560;10.062;2023-11-21T00:46:29;7.17;;;6.47;;
9972;SDS011;5027;53.560;10.062;2023-11-21T00:48:56;7.90;;;6.13;;
9972;SDS011;5027;53.560;10.062;2023-11-21T00:51:23;7.50;;;6.80;;
9972;SDS011;5027;53.560;10.062;2023-11-21T00:53:50;7.40;;;6.50;;
9972;SDS011;5027;53.560;10.062;2023-11-21T00:56:18;7.73;;;6.77;;
9972;SDS011;5027;53.560;10.062;2023-11-21T00:58:44;8.33;;;7.60;;
9972;SDS011;5027;53.560;10.062;2023-11-21T01:01:16;8.13;;;7.27;;
9972;SDS011;5027;53.560;10.062;2023-11-21T01:06:32;11.33;;;9.93;;
9972;SDS011;5027;53.560;10.062;2023-11-21T01:08:59;12.30;;;10.00;;
9972;SDS011;5027;53.560;10.062;2023-11-21T01:11:26;12.60;;;10.67;;
9972;SDS011;5027;53.560;10.062;2023-11-21T01:13:52;9.77;;;8.87;;
9972;SDS011;5027;53.560;10.062;2023-11-21T01:16:19;9.73;;;8.73;;
9972;SDS011;5027;53.560;10.062;2023-11-21T01:18:46;9.53;;;8.63;;
9972;SDS011;5027;53.560;10.062;2023-11-21T01:21:13;9.67;;;8.77;;
9972;SDS011;5027;53.560;10.062;2023-11-21T01:23:39;12.40;;;8.87;;
9972;SDS011;5027;53.560;10.062;2023-11-21T01:26:06;12.30;;;8.90;;
9972;SDS011;5027;53.560;10.062;2023-11-21T01:28:35;10.80;;;9.80;;
9972;SDS011;5027;53.560;10.062;2023-11-21T01:31:02;10.60;;;9.60;;
9972;SDS011;5027;53.560;10.062;2023-11-21T01:33:29;10.63;;;9.60;;
9972;SDS011;5027;53.560;10.062;2023-11-21T01:35:56;13.93;;;9.73;;
9972;SDS011;5027;53.560;10.062;2023-11-21T01:38:23;10.53;;;9.53;;
9972;SDS011;5027;53.560;10.062;2023-11-21T01:40:50;9.73;;;8.77;;
9972;SDS011;5027;53.560;10.062;2023-11-21T01:43:17;9.40;;;8.53;;
9972;SDS011;5027;53.560;10.062;2023-11-21T01:45:44;9.47;;;8.57;;
9972;SDS011;5027;53.560;10.062;2023-11-21T01:48:13;9.20;;;8.27;;
9972;SDS011;5027;53.560;10.062;2023-11-21T01:50:43;8.43;;;7.53;;
9972;SDS011;5027;53.560;10.062;2023-11-21T01:53:10;9.93;;;7.97;;
9972;SDS011;5027;53.560;10.062;2023-11-21T01:55:39;7.43;;;6.73;;
9972;SDS011;5027;53.560;10.062;2023-11-21T01:58:08;7.57;;;6.87;;
9972;SDS011;5027;53.560;10.062;2023-11-21T02:00:35;8.20;;;7.40;;
9972;SDS011;5027;53.560;10.062;2023-11-21T02:03:02;9.80;;;6.53;;
9972;SDS011;5027;53.560;10.062;2023-11-21T02:05:31;7.50;;;6.80;;
9972;SDS011;5027;53.560;10.062;2023-11-21T02:07:58;6.80;;;6.20;;
9972;SDS011;5027;53.560;10.062;2023-11-21T02:10:25;7.13;;;6.43;;
9972;SDS011;5027;53.560;10.062;2023-11-21T02:12:52;7.43;;;6.57;;
9972;SDS011;5027;53.560;10.062;2023-11-21T02:15:20;7.00;;;6.30;;
9972;SDS011;5027;53.560;10.062;2023-11-21T02:17:47;6.67;;;6.07;;
9972;SDS011;5027;53.560;10.062;2023-11-21T02:20:18;6.43;;;5.80;;
9972;SDS011;5027;53.560;10.062;2023-11-21T02:22:52;6.47;;;5.80;;
9972;SDS011;5027;53.560;10.062;2023-11-21T02:25:28;7.07;;;5.67;;
9972;SDS011;5027;53.560;10.062;2023-11-21T02:27:56;5.97;;;5.37;;
9972;SDS011;5027;53.560;10.062;2023-11-21T02:30:24;6.17;;;5.57;;
9972;SDS011;5027;53.560;10.062;2023-11-21T02:33:00;6.33;;;5.73;;
9972;SDS011;5027;53.560;10.062;2023-11-21T02:35:28;6.50;;;5.90;;
9972;SDS011;5027;53.560;10.062;2023-11-21T02:37:58;6.70;;;6.10;;
9972;SDS011;5027;53.560;10.062;2023-11-21T02:40:25;6.40;;;5.80;;
9972;SDS011;5027;53.560;10.062;2023-11-21T02:42:53;7.40;;;5.90;;
9972;SDS011;5027;53.560;10.062;2023-11-21T02:45:20;6.77;;;5.83;;
9972;SDS011;5027;53.560;10.062;2023-11-21T02:47:47;6.67;;;6.07;;
9972;SDS011;5027;53.560;10.062;2023-11-21T02:50:20;6.70;;;6.10;;
9972;SDS011;5027;53.560;10.062;2023-11-21T02:52:46;8.10;;;7.30;;
9972;SDS011;5027;53.560;10.062;2023-11-21T02:55:13;6.57;;;5.97;;
9972;SDS011;5027;53.560;10.062;2023-11-21T02:57:40;7.30;;;6.60;;
9972;SDS011;5027;53.560;10.062;2023-11-21T03:00:07;7.80;;;7.10;;
9972;SDS011;5027;53.560;10.062;2023-11-21T03:02:39;7.27;;;6.30;;
9972;SDS011;5027;53.560;10.062;2023-11-21T03:05:06;7.03;;;6.43;;
9972;SDS011;5027;53.560;10.062;2023-11-21T03:07:37;6.63;;;6.13;;
9972;SDS011;5027;53.560;10.062;2023-11-21T03:10:04;9.33;;;6.13;;
9972;SDS011;5027;53.560;10.062;2023-11-21T03:12:33;6.93;;;6.30;;
9972;SDS011;5027;53.560;10.062;2023-11-21T03:14:59;7.00;;;6.40;;
9972;SDS011;5027;53.560;10.062;2023-11-21T03:17:28;6.47;;;5.60;;
9972;SDS011;5027;53.560;10.062;2023-11-21T03:19:55;6.20;;;5.60;;
9972;SDS011;5027;53.560;10.062;2023-11-21T03:22:23;7.33;;;6.63;;
9972;SDS011;5027;53.560;10.062;2023-11-21T03:24:50;7.37;;;6.13;;
9972;SDS011;5027;53.560;10.062;2023-11-21T03:27:17;7.20;;;6.50;;
9972;SDS011;5027;53.560;10.062;2023-11-21T03:29:44;6.77;;;6.07;;
9972;SDS011;5027;53.560;10.062;2023-11-21T03:32:12;7.27;;;6.57;;
9972;SDS011;5027;53.560;10.062;2023-11-21T03:34:56;7.17;;;6.47;;
9972;SDS011;5027;53.560;10.062;2023-11-21T03:37:24;6.47;;;5.87;;
9972;SDS011;5027;53.560;10.062;2023-11-21T03:39:54;6.80;;;6.20;;
9972;SDS011;5027;53.560;10.062;2023-11-21T03:42:22;6.73;;;6.13;;
9972;SDS011;5027;53.560;10.062;2023-11-21T03:44:50;8.27;;;6.73;;
9972;SDS011;5027;53.560;10.062;2023-11-21T03:47:17;7.90;;;6.43;;
9972;SDS011;5027;53.560;10.062;2023-11-21T03:49:45;7.83;;;7.03;;
9972;SDS011;5027;53.560;10.062;2023-11-21T03:52:15;7.50;;;6.80;;
9972;SDS011;5027;53.560;10.062;2023-11-21T03:54:42;7.03;;;6.33;;
9972;SDS011;5027;53.560;10.062;2023-11-21T03:57:09;7.93;;;7.23;;
9972;SDS011;5027;53.560;10.062;2023-11-21T03:59:39;8.77;;;6.73;;
9972;SDS011;5027;53.560;10.062;2023-11-21T04:02:07;7.53;;;6.83;;
9972;SDS011;5027;53.560;10.062;2023-11-21T04:04:34;8.57;;;6.50;;
9972;SDS011;5027;53.560;10.062;2023-11-21T04:07:01;7.17;;;6.43;;
9972;SDS011;5027;53.560;10.062;2023-11-21T04:09:29;7.40;;;6.70;;
9972;SDS011;5027;53.560;10.062;2023-11-21T04:11:56;7.37;;;6.67;;
9972;SDS011;5027;53.560;10.062;2023-11-21T04:14:22;6.60;;;6.00;;
9972;SDS011;5027;53.560;10.062;2023-11-21T04:16:49;6.67;;;5.93;;
9972;SDS011;5027;53.560;10.062;2023-11-21T04:19:16;6.63;;;6.03;;
9972;SDS011;5027;53.560;10.062;2023-11-21T04:21:43;7.40;;;6.30;;
9972;SDS011;5027;53.560;10.062;2023-11-21T04:24:10;6.83;;;6.10;;
9972;SDS011;5027;53.560;10.062;2023-11-21T04:26:37;6.73;;;5.70;;
9972;SDS011;5027;53.560;10.062;2023-11-21T04:29:03;9.10;;;7.27;;
9972;SDS011;5027;53.560;10.062;2023-11-21T04:31:31;7.40;;;6.70;;
9972;SDS011;5027;53.560;10.062;2023-11-21T04:33:58;9.17;;;6.90;;
9972;SDS011;5027;53.560;10.062;2023-11-21T04:36:25;8.83;;;7.07;;
9972;SDS011;5027;53.560;10.062;2023-11-21T04:38:51;8.83;;;7.37;;
9972;SDS011;5027;53.560;10.062;2023-11-21T04:41:18;11.07;;;7.90;;
9972;SDS011;5027;53.560;10.062;2023-11-21T04:43:45;9.13;;;6.63;;
9972;SDS011;5027;53.560;10.062;2023-11-21T04:46:12;7.37;;;6.67;;
9972;SDS011;5027;53.560;10.062;2023-11-21T04:48:38;8.87;;;7.57;;
9972;SDS011;5027;53.560;10.062;2023-11-21T04:51:05;8.67;;;7.77;;
9972;SDS011;5027;53.560;10.062;2023-11-21T04:53:32;9.60;;;7.80;;
9972;SDS011;5027;53.560;10.062;2023-11-21T04:56:00;7.70;;;6.90;;
9972;SDS011;5027;53.560;10.062;2023-11-21T04:58:27;7.70;;;7.00;;
9972;SDS011;5027;53.560;10.062;2023-11-21T05:00:54;8.13;;;7.30;;
9972;SDS011;5027;53.560;10.062;2023-11-21T05:03:21;9.50;;;8.50;;
9972;SDS011;5027;53.560;10.062;2023-11-21T05:05:50;8.50;;;7.67;;
9972;SDS011;5027;53.560;10.062;2023-11-21T05:08:17;8.30;;;7.30;;
9972;SDS011;5027;53.560;10.062;2023-11-21T05:10:45;9.77;;;7.90;;
9972;SDS011;5027;53.560;10.062;2023-11-21T05:13:12;9.40;;;7.43;;
9972;SDS011;5027;53.560;10.062;2023-11-21T05:15:39;8.10;;;7.37;;
9972;SDS011;5027;53.560;10.062;2023-11-21T05:18:05;8.80;;;7.90;;
9972;SDS011;5027;53.560;10.062;2023-11-21T05:20:33;7.73;;;6.63;;
9972;SDS011;5027;53.560;10.062;2023-11-21T05:22:59;8.63;;;6.83;;
9972;SDS011;5027;53.560;10.062;2023-11-21T05:25:26;8.00;;;7.17;;
9972;SDS011;5027;53.560;10.062;2023-11-21T05:27:53;7.77;;;7.07;;
9972;SDS011;5027;53.560;10.062;2023-11-21T05:30:25;10.93;;;7.43;;
9972;SDS011;5027;53.560;10.062;2023-11-21T05:32:52;7.33;;;6.63;;
9972;SDS011;5027;53.560;10.062;2023-11-21T05:35:19;8.23;;;6.93;;
9972;SDS011;5027;53.560;10.062;2023-11-21T05:37:47;7.80;;;7.10;;
9972;SDS011;5027;53.560;10.062;2023-11-21T05:40:14;7.57;;;6.87;;
9972;SDS011;5027;53.560;10.062;2023-11-21T05:42:41;8.33;;;6.50;;
9972;SDS011;5027;53.560;10.062;2023-11-21T05:45:08;8.83;;;7.20;;
9972;SDS011;5027;53.560;10.062;2023-11-21T05:47:38;8.00;;;7.20;;
9972;SDS011;5027;53.560;10.062;2023-11-21T05:50:08;8.10;;;7.30;;
9972;SDS011;5027;53.560;10.062;2023-11-21T05:52:41;8.70;;;7.77;;
9972;SDS011;5027;53.560;10.062;2023-11-21T05:55:08;8.60;;;7.70;;
9972;SDS011;5027;53.560;10.062;2023-11-21T05:57:37;8.37;;;7.57;;
9972;SDS011;5027;53.560;10.062;2023-11-21T06:00:05;7.93;;;7.10;;
9972;SDS011;5027;53.560;10.062;2023-11-21T06:02:52;7.17;;;6.43;;
9972;SDS011;5027;53.560;10.062;2023-11-21T06:05:22;8.63;;;7.73;;
9972;SDS011;5027;53.560;10.062;2023-11-21T06:07:50;7.53;;;6.83;;
9972;SDS011;5027;53.560;10.062;2023-11-21T06:10:21;8.37;;;6.87;;
9972;SDS011;5027;53.560;10.062;2023-11-21T06:12:50;7.80;;;6.93;;
9972;SDS011;5027;53.560;10.062;2023-11-21T06:15:17;8.43;;;6.80;;
9972;SDS011;5027;53.560;10.062;2023-11-21T06:17:46;8.57;;;7.70;;
9972;SDS011;5027;53.560;10.062;2023-11-21T06:20:18;8.83;;;6.87;;
9972;SDS011;5027;53.560;10.062;2023-11-21T06:22:46;7.83;;;7.13;;
9972;SDS011;5027;53.560;10.062;2023-11-21T06:25:14;8.17;;;6.53;;
9972;SDS011;5027;53.560;10.062;2023-11-21T06:27:42;10.13;;;7.60;;
9972;SDS011;5027;53.560;10.062;2023-11-21T06:30:11;8.93;;;7.13;;
9972;SDS011;5027;53.560;10.062;2023-11-21T06:32:39;7.33;;;6.57;;
9972;SDS011;5027;53.560;10.062;2023-11-21T06:35:07;7.90;;;7.00;;
9972;SDS011;5027;53.560;10.062;2023-11-21T06:37:36;8.30;;;7.50;;
9972;SDS011;5027;53.560;10.062;2023-11-21T06:40:03;7.53;;;6.83;;
9972;SDS011;5027;53.560;10.062;2023-11-21T06:42:30;8.33;;;7.13;;
9972;SDS011;5027;53.560;10.062;2023-11-21T06:44:57;10.13;;;7.20;;
9972;SDS011;5027;53.560;10.062;2023-11-21T06:47:25;7.00;;;6.40;;
9972;SDS011;5027;53.560;10.062;2023-11-21T06:49:52;8.87;;;7.80;;
9972;SDS011;5027;53.560;10.062;2023-11-21T06:52:19;8.70;;;7.90;;
9972;SDS011;5027;53.560;10.062;2023-11-21T06:54:47;8.33;;;7.53;;
9972;SDS011;5027;53.560;10.062;2023-11-21T06:57:15;9.10;;;7.87;;
9972;SDS011;5027;53.560;10.062;2023-11-21T06:59:42;8.90;;;7.37;;
9972;SDS011;5027;53.560;10.062;2023-11-21T07:02:09;10.63;;;7.17;;
9972;SDS011;5027;53.560;10.062;2023-11-21T07:04:36;8.40;;;7.33;;
9972;SDS011;5027;53.560;10.062;2023-11-21T07:07:03;8.80;;;7.73;;
9972;SDS011;5027;53.560;10.062;2023-11-21T07:09:30;9.70;;;7.27;;
9972;SDS011;5027;53.560;10.062;2023-11-21T07:11:57;8.30;;;7.50;;
9972;SDS011;5027;53.560;10.062;2023-11-21T07:14:24;10.00;;;7.70;;
9972;SDS011;5027;53.560;10.062;2023-11-21T07:16:51;8.70;;;7.57;;
9972;SDS011;5027;53.560;10.062;2023-11-21T07:19:19;7.30;;;6.57;;
9972;SDS011;5027;53.560;10.062;2023-11-21T07:21:46;8.77;;;7.07;;
9972;SDS011;5027;53.560;10.062;2023-11-21T07:24:13;7.80;;;6.70;;
9972;SDS011;5027;53.560;10.062;2023-11-21T07:26:40;10.47;;;7.40;;
9972;SDS011;5027;53.560;10.062;2023-11-21T07:29:08;8.33;;;6.67;;
9972;SDS011;5027;53.560;10.062;2023-11-21T07:31:35;7.63;;;6.83;;
9972;SDS011;5027;53.560;10.062;2023-11-21T07:34:02;8.50;;;6.80;;
9972;SDS011;5027;53.560;10.062;2023-11-21T07:36:28;7.13;;;6.23;;
9972;SDS011;5027;53.560;10.062;2023-11-21T07:38:55;7.43;;;6.17;;
9972;SDS011;5027;53.560;10.062;2023-11-21T07:41:22;7.77;;;6.90;;
9972;SDS011;5027;53.560;10.062;2023-11-21T07:43:56;11.50;;;10.20;;
9972;SDS011;5027;53.560;10.062;2023-11-21T07:46:23;9.30;;;7.00;;
9972;SDS011;5027;53.560;10.062;2023-11-21T07:48:52;8.13;;;6.97;;
9972;SDS011;5027;53.560;10.062;2023-11-21T07:51:19;6.97;;;6.27;;
9972;SDS011;5027;53.560;10.062;2023-11-21T07:53:46;7.47;;;6.60;;
9972;SDS011;5027;53.560;10.062;2023-11-21T07:56:13;8.43;;;6.23;;
9972;SDS011;5027;53.560;10.062;2023-11-21T07:58:40;6.17;;;5.57;;
9972;SDS011;5027;53.560;10.062;2023-11-21T08:01:06;7.47;;;6.20;;
9972;SDS011;5027;53.560;10.062;2023-11-21T08:03:34;6.77;;;6.03;;
9972;SDS011;5027;53.560;10.062;2023-11-21T08:06:01;7.17;;;5.57;;
9972;SDS011;5027;53.560;10.062;2023-11-21T08:08:29;6.33;;;5.73;;
9972;SDS011;5027;53.560;10.062;2023-11-21T08:10:56;6.93;;;6.20;;
9972;SDS011;5027;53.560;10.062;2023-11-21T08:13:27;6.10;;;5.57;;
9972;SDS011;5027;53.560;10.062;2023-11-21T08:15:56;6.40;;;5.30;;
9972;SDS011;5027;53.560;10.062;2023-11-21T08:18:27;6.03;;;5.43;;
9972;SDS011;5027;53.560;10.062;2023-11-21T08:20:54;6.70;;;5.80;;
9972;SDS011;5027;53.560;10.062;2023-11-21T08:23:21;7.67;;;5.23;;
9972;SDS011;5027;53.560;10.062;2023-11-21T08:25:52;5.03;;;4.63;;
9972;SDS011;5027;53.560;10.062;2023-11-21T08:28:20;5.13;;;4.63;;
9972;SDS011;5027;53.560;10.062;2023-11-21T08:30:49;5.40;;;4.90;;
9972;SDS011;5027;53.560;10.062;2023-11-21T08:33:16;7.50;;;5.60;;
9972;SDS011;5027;53.560;10.062;2023-11-21T08:35:43;6.10;;;5.30;;
9972;SDS011;5027;53.560;10.062;2023-11-21T08:38:10;5.83;;;5.27;;
9972;SDS011;5027;53.560;10.062;2023-11-21T08:40:37;6.60;;;4.90;;
9972;SDS011;5027;53.560;10.062;2023-11-21T08:43:04;5.20;;;4.70;;
9972;SDS011;5027;53.560;10.062;2023-11-21T08:45:31;5.60;;;5.00;;
9972;SDS011;5027;53.560;10.062;2023-11-21T08:48:01;5.63;;;4.17;;
9972;SDS011;5027;53.560;10.062;2023-11-21T08:50:28;5.00;;;4.50;;
9972;SDS011;5027;53.560;10.062;2023-11-21T08:52:55;5.60;;;5.10;;
9972;SDS011;5027;53.560;10.062;2023-11-21T08:55:22;5.47;;;4.63;;
9972;SDS011;5027;53.560;10.062;2023-11-21T08:57:49;5.13;;;4.57;;
9972;SDS011;5027;53.560;10.062;2023-11-21T09:00:17;5.17;;;4.60;;
9972;SDS011;5027;53.560;10.062;2023-11-21T09:02:45;5.23;;;4.77;;
9972;SDS011;5027;53.560;10.062;2023-11-21T09:05:12;6.37;;;4.50;;
9972;SDS011;5027;53.560;10.062;2023-11-21T09:07:41;4.80;;;4.30;;
9972;SDS011;5027;53.560;10.062;2023-11-21T09:10:08;4.50;;;4.10;;
9972;SDS011;5027;53.560;10.062;2023-11-21T09:12:36;6.37;;;4.60;;
9972;SDS011;5027;53.560;10.062;2023-11-21T09:15:04;3.93;;;3.60;;
9972;SDS011;5027;53.560;10.062;2023-11-21T09:17:32;4.83;;;3.90;;
9972;SDS011;5027;53.560;10.062;2023-11-21T09:20:03;4.50;;;3.40;;
9972;SDS011;5027;53.560;10.062;2023-11-21T09:22:32;4.87;;;3.70;;
9972;SDS011;5027;53.560;10.062;2023-11-21T09:24:59;3.97;;;3.53;;
9972;SDS011;5027;53.560;10.062;2023-11-21T09:27:26;4.40;;;3.60;;
9972;SDS011;5027;53.560;10.062;2023-11-21T09:29:53;4.87;;;4.10;;
9972;SDS011;5027;53.560;10.062;2023-11-21T09:32:20;4.83;;;4.30;;
9972;SDS011;5027;53.560;10.062;2023-11-21T09:34:51;4.00;;;3.60;;
9972;SDS011;5027;53.560;10.062;2023-11-21T09:37:18;4.83;;;4.10;;
9972;SDS011;5027;53.560;10.062;2023-11-21T09:39:45;3.50;;;3.20;;
9972;SDS011;5027;53.560;10.062;2023-11-21T09:42:17;4.67;;;3.43;;
9972;SDS011;5027;53.560;10.062;2023-11-21T09:47:55;3.77;;;3.37;;
9972;SDS011;5027;53.560;10.062;2023-11-21T09:50:23;3.87;;;3.53;;
9972;SDS011;5027;53.560;10.062;2023-11-21T09:52:54;4.17;;;3.30;;
9972;SDS011;5027;53.560;10.062;2023-11-21T09:55:28;4.50;;;4.10;;
9972;SDS011;5027;53.560;10.062;2023-11-21T09:57:56;6.10;;;3.40;;
9972;SDS011;5027;53.560;10.062;2023-11-21T10:00:24;4.67;;;3.87;;
9972;SDS011;5027;53.560;10.062;2023-11-21T10:02:51;4.07;;;3.67;;
9972;SDS011;5027;53.560;10.062;2023-11-21T10:05:19;4.47;;;3.63;;
9972;SDS011;5027;53.560;10.062;2023-11-21T10:07:51;4.70;;;3.47;;
9972;SDS011;5027;53.560;10.062;2023-11-21T10:10:19;5.20;;;3.90;;
9972;SDS011;5027;53.560;10.062;2023-11-21T10:12:49;7.20;;;3.70;;
9972;SDS011;5027;53.560;10.062;2023-11-21T10:15:21;4.83;;;3.60;;
9972;SDS011;5027;53.560;10.062;2023-11-21T10:17:49;5.70;;;4.00;;
9972;SDS011;5027;53.560;10.062;2023-11-21T10:20:16;3.90;;;3.43;;
9972;SDS011;5027;53.560;10.062;2023-11-21T10:22:43;8.83;;;3.30;;
9972;SDS011;5027;53.560;10.062;2023-11-21T10:25:10;2.03;;;1.83;;
9972;SDS011;5027;53.560;10.062;2023-11-21T10:27:37;3.87;;;3.47;;
9972;SDS011;5027;53.560;10.062;2023-11-21T10:30:07;4.43;;;3.70;;
9972;SDS011;5027;53.560;10.062;2023-11-21T10:32:41;3.13;;;2.83;;
9972;SDS011;5027;53.560;10.062;2023-11-21T10:35:09;4.57;;;3.57;;
9972;SDS011;5027;53.560;10.062;2023-11-21T10:37:37;3.97;;;3.57;;
9972;SDS011;5027;53.560;10.062;2023-11-21T10:40:06;3.40;;;3.10;;
9972;SDS011;5027;53.560;10.062;2023-11-21T10:42:38;3.20;;;2.90;;
9972;SDS011;5027;53.560;10.062;2023-11-21T10:45:06;3.90;;;2.77;;
9972;SDS011;5027;53.560;10.062;2023-11-21T10:47:41;5.37;;;3.13;;
9972;SDS011;5027;53.560;10.062;2023-11-21T10:50:10;3.53;;;2.70;;
9972;SDS011;5027;53.560;10.062;2023-11-21T10:52:40;5.10;;;3.17;;
9972;SDS011;5027;53.560;10.062;2023-11-21T10:55:16;3.60;;;3.30;;
9972;SDS011;5027;53.560;10.062;2023-11-21T10:57:45;3.23;;;2.70;;
9972;SDS011;5027;53.560;10.062;2023-11-21T11:00:15;4.70;;;2.93;;
9972;SDS011;5027;53.560;10.062;2023-11-21T11:02:46;4.67;;;2.80;;
9972;SDS011;5027;53.560;10.062;2023-11-21T11:05:19;4.33;;;3.40;;
9972;SDS011;5027;53.560;10.062;2023-11-21T11:07:48;3.57;;;2.53;;
9972;SDS011;5027;53.560;10.062;2023-11-21T11:10:21;3.57;;;3.10;;
9972;SDS011;5027;53.560;10.062;2023-11-21T11:12:49;6.47;;;3.50;;
9972;SDS011;5027;53.560;10.062;2023-11-21T11:15:19;3.30;;;3.00;;
9972;SDS011;5027;53.560;10.062;2023-11-21T11:17:46;3.27;;;2.97;;
9972;SDS011;5027;53.560;10.062;2023-11-21T11:20:14;3.20;;;2.90;;
9972;SDS011;5027;53.560;10.062;2023-11-21T11:22:50;3.20;;;2.90;;
9972;SDS011;5027;53.560;10.062;2023-11-21T11:28:15;2.80;;;2.60;;
9972;SDS011;5027;53.560;10.062;2023-11-21T11:33:34;9.40;;;3.40;;
9972;SDS011;5027;53.560;10.062;2023-11-21T11:36:14;4.93;;;3.30;;
9972;SDS011;5027;53.560;10.062;2023-11-21T11:38:54;3.00;;;2.70;;
9972;SDS011;5027;53.560;10.062;2023-11-21T11:41:26;3.53;;;2.93;;
9972;SDS011;5027;53.560;10.062;2023-11-21T11:44:02;3.53;;;2.87;;
9972;SDS011;5027;53.560;10.062;2023-11-21T11:46:43;4.43;;;2.90;;
9972;SDS011;5027;53.560;10.062;2023-11-21T11:49:23;5.23;;;2.97;;
9972;SDS011;5027;53.560;10.062;2023-11-21T11:54:58;3.40;;;2.83;;
9972;SDS011;5027;53.560;10.062;2023-11-21T11:57:26;3.23;;;2.93;;
9972;SDS011;5027;53.560;10.062;2023-11-21T12:00:06;3.47;;;3.13;;
9972;SDS011;5027;53.560;10.062;2023-11-21T12:02:38;5.40;;;3.53;;
9972;SDS011;5027;53.560;10.062;2023-11-21T12:05:12;5.07;;;3.40;;
9972;SDS011;5027;53.560;10.062;2023-11-21T12:07:54;3.53;;;2.97;;
9972;SDS011;5027;53.560;10.062;2023-11-21T12:10:24;3.80;;;3.43;;
9972;SDS011;5027;53.560;10.062;2023-11-21T12:12:52;5.20;;;3.07;;
9972;SDS011;5027;53.560;10.062;2023-11-21T12:15:24;4.17;;;2.33;;
9972;SDS011;5027;53.560;10.062;2023-11-21T12:17:51;4.80;;;3.37;;
9972;SDS011;5027;53.560;10.062;2023-11-21T12:20:19;4.60;;;3.30;;
9972;SDS011;5027;53.560;10.062;2023-11-21T12:22:48;8.43;;;3.23;;
9972;SDS011;5027;53.560;10.062;2023-11-21T12:25:20;2.33;;;2.13;;
9972;SDS011;5027;53.560;10.062;2023-11-21T12:27:53;4.63;;;2.70;;
9972;SDS011;5027;53.560;10.062;2023-11-21T12:30:20;3.00;;;2.70;;
9972;SDS011;5027;53.560;10.062;2023-11-21T12:32:49;5.33;;;3.07;;
9972;SDS011;5027;53.560;10.062;2023-11-21T12:35:23;4.10;;;3.20;;
9972;SDS011;5027;53.560;10.062;2023-11-21T12:37:51;5.80;;;2.70;;
9972;SDS011;5027;53.560;10.062;2023-11-21T12:40:20;1.97;;;1.80;;
9972;SDS011;5027;53.560;10.062;2023-11-21T12:42:51;4.07;;;3.10;;
9972;SDS011;5027;53.560;10.062;2023-11-21T12:47:48;3.80;;;2.90;;
9972;SDS011;5027;53.560;10.062;2023-11-21T12:50:24;6.33;;;2.93;;
9972;SDS011;5027;53.560;10.062;2023-11-21T12:52:59;6.80;;;3.63;;
9972;SDS011;5027;53.560;10.062;2023-11-21T12:55:29;4.17;;;2.40;;
9972;SDS011;5027;53.560;10.062;2023-11-21T12:57:57;2.87;;;2.67;;
9972;SDS011;5027;53.560;10.062;2023-11-21T13:00:35;3.40;;;2.63;;
9972;SDS011;5027;53.560;10.062;2023-11-21T13:03:04;2.43;;;2.23;;
9972;SDS011;5027;53.560;10.062;2023-11-21T13:05:39;4.40;;;2.70;;
9972;SDS011;5027;53.560;10.062;2023-11-21T13:08:08;4.60;;;3.13;;
9972;SDS011;5027;53.560;10.062;2023-11-21T13:10:39;2.80;;;2.50;;
9972;SDS011;5027;53.560;10.062;2023-11-21T13:13:10;3.43;;;3.13;;
9972;SDS011;5027;53.560;10.062;2023-11-21T13:15:53;3.60;;;2.93;;
9972;SDS011;5027;53.560;10.062;2023-11-21T13:18:24;3.97;;;2.87;;
9972;SDS011;5027;53.560;10.062;2023-11-21T13:20:53;4.47;;;2.30;;
9972;SDS011;5027;53.560;10.062;2023-11-21T13:23:22;6.10;;;2.97;;
9972;SDS011;5027;53.560;10.062;2023-11-21T13:25:49;4.50;;;2.60;;
9972;SDS011;5027;53.560;10.062;2023-11-21T13:28:27;7.30;;;2.90;;
9972;SDS011;5027;53.560;10.062;2023-11-21T13:30:58;3.17;;;2.70;;
9972;SDS011;5027;53.560;10.062;2023-11-21T13:33:36;3.10;;;2.70;;
9972;SDS011;5027;53.560;10.062;2023-11-21T13:36:09;4.37;;;2.90;;
9972;SDS011;5027;53.560;10.062;2023-11-21T13:38:37;2.77;;;2.57;;
9972;SDS011;5027;53.560;10.062;2023-11-21T13:41:08;3.13;;;2.70;;
9972;SDS011;5027;53.560;10.062;2023-11-21T13:43:36;3.00;;;2.63;;
9972;SDS011;5027;53.560;10.062;2023-11-21T13:46:03;4.63;;;2.40;;
9972;SDS011;5027;53.560;10.062;2023-11-21T13:48:40;3.27;;;2.70;;
9972;SDS011;5027;53.560;10.062;2023-11-21T13:51:08;6.60;;;2.83;;
9972;SDS011;5027;53.560;10.062;2023-11-21T13:53:46;2.80;;;2.20;;
9972;SDS011;5027;53.560;10.062;2023-11-21T13:56:16;1.80;;;1.70;;
9972;SDS011;5027;53.560;10.062;2023-11-21T13:58:51;4.43;;;2.63;;
9972;SDS011;5027;53.560;10.062;2023-11-21T14:01:20;4.73;;;2.97;;
9972;SDS011;5027;53.560;10.062;2023-11-21T14:06:46;4.40;;;3.10;;
9972;SDS011;5027;53.560;10.062;2023-11-21T14:09:15;3.40;;;2.70;;
9972;SDS011;5027;53.560;10.062;2023-11-21T14:11:52;5.10;;;2.87;;
9972;SDS011;5027;53.560;10.062;2023-11-21T14:14:21;3.10;;;2.90;;
9972;SDS011;5027;53.560;10.062;2023-11-21T14:16:48;11.70;;;2.83;;
9972;SDS011;5027;53.560;10.062;2023-11-21T14:19:16;3.07;;;2.77;;
9972;SDS011;5027;53.560;10.062;2023-11-21T14:21:43;5.43;;;2.60;;
9972;SDS011;5027;53.560;10.062;2023-11-21T14:24:11;3.80;;;2.63;;
9972;SDS011;5027;53.560;10.062;2023-11-21T14:26:45;4.00;;;3.10;;
9972;SDS011;5027;53.560;10.062;2023-11-21T14:29:13;3.87;;;2.83;;
9972;SDS011;5027;53.560;10.062;2023-11-21T14:31:43;6.17;;;2.87;;
9972;SDS011;5027;53.560;10.062;2023-11-21T14:34:10;3.60;;;2.90;;
9972;SDS011;5027;53.560;10.062;2023-11-21T14:36:38;3.23;;;1.97;;
9972;SDS011;5027;53.560;10.062;2023-11-21T14:39:06;3.67;;;2.80;;
9972;SDS011;5027;53.560;10.062;2023-11-21T14:41:35;2.90;;;2.70;;
9972;SDS011;5027;53.560;10.062;2023-11-21T14:44:03;4.23;;;2.60;;
9972;SDS011;5027;53.560;10.062;2023-11-21T14:46:30;2.70;;;2.50;;
9972;SDS011;5027;53.560;10.062;2023-11-21T14:48:57;4.83;;;3.07;;
9972;SDS011;5027;53.560;10.062;2023-11-21T14:51:46;3.60;;;2.67;;
9972;SDS011;5027;53.560;10.062;2023-11-21T14:54:23;4.03;;;3.40;;
9972;SDS011;5027;53.560;10.062;2023-11-21T14:57:09;2.70;;;2.30;;
9972;SDS011;5027;53.560;10.062;2023-11-21T14:59:44;5.83;;;2.40;;
9972;SDS011;5027;53.560;10.062;2023-11-21T15:02:23;4.70;;;3.00;;
9972;SDS011;5027;53.560;10.062;2023-11-21T15:05:22;2.80;;;2.50;;
9972;SDS011;5027;53.560;10.062;2023-11-21T15:07:50;3.03;;;2.47;;
9972;SDS011;5027;53.560;10.062;2023-11-21T15:10:22;3.00;;;2.80;;
9972;SDS011;5027;53.560;10.062;2023-11-21T15:13:04;3.77;;;2.40;;
9972;SDS011;5027;53.560;10.062;2023-11-21T15:15:31;3.40;;;3.00;;
9972;SDS011;5027;53.560;10.062;2023-11-21T15:18:00;3.10;;;2.77;;
9972;SDS011;5027;53.560;10.062;2023-11-21T15:20:27;3.90;;;2.70;;
9972;SDS011;5027;53.560;10.062;2023-11-21T15:22:54;2.60;;;2.40;;
9972;SDS011;5027;53.560;10.062;2023-11-21T15:25:21;3.67;;;2.40;;
9972;SDS011;5027;53.560;10.062;2023-11-21T15:27:48;3.23;;;2.40;;
9972;SDS011;5027;53.560;10.062;2023-11-21T15:30:16;3.80;;;2.10;;
9972;SDS011;5027;53.560;10.062;2023-11-21T15:32:49;2.67;;;2.43;;